This is the latest recevied weather packets stored in our database for station/object WV8MT. If no packets are shown the sender has not sent any weather packets the latest 10 day(s).
| Time | Temp. | Humidity | Pressure | Rain* | Wind** | Luminosity | Snow |
|---|---|---|---|---|---|---|---|
| 1777800626 | 3.33° C | 69% | 1019.4 hPa | 0 mm | - | - | - |
| 1777797020 | 4.44° C | 69% | 1019.3 hPa | 0 mm | - | - | - |
| 1777791640 | 4.44° C | 65% | 1018.8 hPa | 0 mm | - | - | - |
| 1777790428 | 4.44° C | 67% | 1018.9 hPa | 0 mm | - | - | - |
| 1777787430 | 5° C | 65% | 1019.1 hPa | 0 mm | - | - | - |
| 1777786241 | 5° C | 68% | 1018.8 hPa | 0 mm | - | - | - |
| 1777776016 | 4.44° C | 80% | 1018.8 hPa | 0 mm | - | - | - |
| 1777775440 | 4.44° C | 76% | 1018.8 hPa | 0 mm | - | - | - |
| 1777774824 | 5° C | 76% | 1018.7 hPa | 0 mm | - | - | - |
| 1777769465 | 7.22° C | 61% | 1017.8 hPa | 0 mm | - | - | - |
| 1777765237 | 8.89° C | 51% | 1017.1 hPa | 0 mm | - | - | - |
| 1777758625 | 13.33° C | 42% | 1016.4 hPa | 0 mm | - | - | - |
| 1777754417 | 13.33° C | 45% | 1016.5 hPa | 0 mm | - | - | - |
| 1777752669 | 12.22° C | 49% | 1016.6 hPa | 0 mm | - | - | - |
| 1777747825 | 13.33° C | 47% | 1016.9 hPa | 0 mm | - | - | - |
| 1777744821 | 11.67° C | 48% | 1017.6 hPa | 0 mm | - | - | - |
| 1777735219 | 11.67° C | 47% | 1018.3 hPa | 0 mm | - | - | - |
| 1777727417 | 8.89° C | 69% | 1018.3 hPa | 0 mm | - | - | - |
| 1777723823 | 7.22° C | 76% | 1018.3 hPa | 0 mm | - | - | - |
| 1777723227 | 6.11° C | 82% | 1018.3 hPa | 0 mm | - | - | - |
| 1777722653 | 5° C | 86% | 1018.3 hPa | 0 mm | - | - | - |
| 1777721421 | 3.89° C | 95% | 1018.5 hPa | 0 mm | - | - | - |
| 1777714829 | 3.33° C | 93% | 1018.7 hPa | 0 mm | - | - | - |
| 1777714215 | 3.89° C | 92% | 1018.8 hPa | 0 mm | - | - | - |
| 1777710641 | 5° C | 84% | 1018.4 hPa | 0 mm | - | - | - |
* Rain latest hour (hover to see other rain measurements)
** Current wind speed in m/s (hover to see current wind gust speed)